Topock, AZ (86436)

4:04 PM MST on March 28, 2015 (GMT -0700)
Az Route 66, Mile 6 | | Change Station
CLOSE
Current Station
Personal Weather Station
Location: Mohave Valley, AZ
Elevation: 679 ft
Nearby Weather Stations

Elev 679 ft 34.79 °N, 114.48 °W | Updated 20 seconds ago

Clear
Clear
99.3 °F
Feels Like 94 °F
N
2.0
Wind Variable Wind from SE
Gusts 2.5 mph

Today
High -- | Low -- °F
--% Chance of Precip.
Yesterday
High -- | Low -- °F
Precip. -- in
6:30 AM 6:55 PM
Waxing Gibbous, 66% visible
Pressure 29.83 in
Visibility 10.0 miles
Clouds Clear
Heat Index 94 °F
Dew Point 33 °F
Humidity 10%
Rainfall 0.00 in
Snow Depth Not available.
UV 4 out of 12
Pollen 11.40 out of 12
Air Quality Not available.
Flu Activity Not available.
METAR KEED 282256Z AUTO 17007KT 10SM CLR 36/M08 A2991 RMK AO2 SLP101 T03561083

More Conditions Fewer Conditions

Pressure 29.83 in
Visibility 10.0 miles
Clouds Clear
Heat Index 94 °F
Dew Point 33 °F
Humidity 10%
Rainfall 0.00 in
Snow Depth Not available.
UV 4 out of 12
Pollen 11.40 out of 12
Air Quality Not available.
Flu Activity Not available.
METAR KEED 282256Z AUTO 17007KT 10SM CLR 36/M08 A2991 RMK AO2 SLP101 T03561083

More Conditions Fewer Conditions

10-Day Weather Forecast

Almanac

Astronomy

Mar. 28, 2015 Rise Set
Actual Time
Civil Twilight
Nautical Twilight
Astronomical Twilight
Moon
Length of Visible Light
Length of Day
Tomorrow will be .
, % of the Moon is Illuminated

Today's Extremes

State Highs State Lows

Community

WunderPhotos

Upload Photos

1,809,121 photos uploaded!

WunderBlogs® & News

Nearby

Air Quality

  Air Quality AQ Index Pollutant
Not available.

Snow Depth

Station Depth Elevation

Earthquake Activity

City Distance Mag. Time & Date
Minimum magnitude displayed is 2.5.

Coastal Water Temperatures

Place Temperature

Stations

Nearby Weather Stations

Station Location Temp. Windchill Dew Point Humidity Wind Precip. Elev Updated Type